createdAt,value
2023-04-03T00:00:19.826Z,0.98
2023-04-03T00:01:19.824Z,1.05
2023-04-03T00:02:19.998Z,1.03
2023-04-03T00:03:19.890Z,1.03
2023-04-03T00:04:19.825Z,1.03
2023-04-03T00:05:19.793Z,1.05
2023-04-03T00:06:19.791Z,1.08
2023-04-03T00:07:19.798Z,1.09
2023-04-03T00:08:19.780Z,1.05
2023-04-03T00:09:20.631Z,1.08
2023-04-03T00:10:20.806Z,1.00
2023-04-03T00:11:19.759Z,1.05
2023-04-03T00:12:19.761Z,1.09
2023-04-03T00:13:19.737Z,1.05
2023-04-03T00:14:19.736Z,0.99
2023-04-03T00:15:19.746Z,0.98
2023-04-03T00:16:20.782Z,1.00
2023-04-03T00:17:20.642Z,1.00
2023-04-03T00:18:20.550Z,1.00
2023-04-03T00:19:20.710Z,1.00
2023-04-03T00:20:19.714Z,1.02
2023-04-03T00:21:19.710Z,1.03
2023-04-03T00:22:19.699Z,1.03
2023-04-03T00:23:19.734Z,1.05
2023-04-03T00:24:19.742Z,1.02
2023-04-03T00:25:19.747Z,1.03
2023-04-03T00:26:19.753Z,1.02
2023-04-03T00:27:19.663Z,0.99
2023-04-03T00:28:19.655Z,1.00
2023-04-03T00:29:19.642Z,1.02
2023-04-03T00:30:19.635Z,1.05
2023-04-03T00:31:19.694Z,1.05
2023-04-03T00:32:19.658Z,1.09
2023-04-03T00:33:19.617Z,1.09
2023-04-03T00:34:19.614Z,1.12
2023-04-03T00:35:19.600Z,1.16
2023-04-03T00:36:19.708Z,1.10
2023-04-03T00:37:19.661Z,1.08
2023-04-03T00:38:19.595Z,1.16
2023-04-03T00:39:20.449Z,1.17
2023-04-03T00:40:20.462Z,1.16
2023-04-03T00:41:20.543Z,1.18
2023-04-03T00:42:19.574Z,1.12
2023-04-03T00:43:19.544Z,1.12
2023-04-03T00:44:19.549Z,1.06
2023-04-03T00:45:19.541Z,1.00
2023-04-03T00:46:19.590Z,0.98
2023-04-03T00:47:19.543Z,0.92
2023-04-03T00:48:19.547Z,0.92
2023-04-03T00:49:20.380Z,0.82
2023-04-03T00:50:19.512Z,0.74
2023-04-03T00:51:19.505Z,0.70
2023-04-03T00:52:19.516Z,0.67
2023-04-03T00:53:19.490Z,0.63
2023-04-03T00:54:19.507Z,0.60
2023-04-03T00:55:19.489Z,0.59
2023-04-03T00:56:19.528Z,0.55
2023-04-03T00:57:19.775Z,0.53
2023-04-03T00:58:19.476Z,0.55
2023-04-03T00:59:19.459Z,0.50
2023-04-03T01:00:19.467Z,0.48
2023-04-03T01:01:19.536Z,0.47
2023-04-03T01:02:19.470Z,0.43
2023-04-03T01:03:19.551Z,0.40
2023-04-03T01:04:19.457Z,0.40
2023-04-03T01:05:19.419Z,0.37
2023-04-03T01:06:19.473Z,0.36
2023-04-03T01:07:19.790Z,0.30
2023-04-03T01:08:19.402Z,0.30
2023-04-03T01:09:19.397Z,0.29
2023-04-03T01:10:19.406Z,0.27
2023-04-03T01:11:20.137Z,0.32
2023-04-03T01:12:20.219Z,0.27
2023-04-03T01:13:19.368Z,0.23
2023-04-03T01:14:19.373Z,0.30
2023-04-03T01:15:19.358Z,0.26
2023-04-03T01:16:19.434Z,0.20
2023-04-03T01:17:19.369Z,0.18
2023-04-03T01:18:19.347Z,0.18
2023-04-03T01:19:19.336Z,0.22
2023-04-03T01:20:19.341Z,0.22
2023-04-03T01:21:19.335Z,0.27
2023-04-03T01:22:19.334Z,0.29
2023-04-03T01:23:19.315Z,0.25
2023-04-03T01:24:19.305Z,0.22
2023-04-03T01:25:19.282Z,0.23
2023-04-03T01:26:19.833Z,0.26
2023-04-03T01:27:19.839Z,0.26
2023-04-03T01:28:19.286Z,0.29
2023-04-03T01:29:19.269Z,0.29
2023-04-03T01:30:19.275Z,0.27
2023-04-03T01:31:19.266Z,0.30
2023-04-03T01:32:20.080Z,0.30
2023-04-03T01:33:19.272Z,0.32
2023-04-03T01:34:19.237Z,0.32
2023-04-03T01:35:19.226Z,0.32
2023-04-03T01:36:19.230Z,0.30
2023-04-03T01:37:19.215Z,0.27
2023-04-03T01:38:19.226Z,0.27
2023-04-03T01:39:19.199Z,0.22
2023-04-03T01:40:19.219Z,0.25
2023-04-03T01:41:19.215Z,0.23
2023-04-03T01:42:19.222Z,0.29
2023-04-03T01:43:19.189Z,0.32
2023-04-03T01:44:19.175Z,0.26
2023-04-03T01:45:19.178Z,0.22
2023-04-03T01:46:19.284Z,0.20
2023-04-03T01:47:19.172Z,0.22
2023-04-03T01:48:19.278Z,0.15
2023-04-03T01:49:19.272Z,0.12
2023-04-03T01:50:19.138Z,0.15
2023-04-03T01:51:19.284Z,0.11
2023-04-03T01:52:19.117Z,0.11
2023-04-03T01:53:19.136Z,0.04
2023-04-03T01:54:19.123Z,0.04
2023-04-03T01:55:19.099Z,0.00
2023-04-03T01:56:19.105Z,0.00
2023-04-03T01:57:19.383Z,0.02
2023-04-03T01:58:19.327Z,-0.01
2023-04-03T01:59:19.088Z,0.04
2023-04-03T02:00:19.113Z,0.09
2023-04-03T02:01:19.182Z,0.17
2023-04-03T02:02:19.064Z,0.14
2023-04-03T02:03:19.065Z,0.15
2023-04-03T02:04:19.132Z,0.18
2023-04-03T02:05:19.041Z,0.17
2023-04-03T02:06:19.057Z,0.17
2023-04-03T02:07:19.026Z,0.14
2023-04-03T02:08:19.042Z,0.09
2023-04-03T02:09:19.034Z,0.14
2023-04-03T02:10:19.041Z,0.09
2023-04-03T02:11:19.015Z,0.08
2023-04-03T02:12:19.001Z,0.07
2023-04-03T02:13:19.022Z,0.05
2023-04-03T02:14:19.017Z,0.02
2023-04-03T02:15:18.978Z,0.00
2023-04-03T02:16:19.078Z,0.05
2023-04-03T02:17:18.976Z,0.02
2023-04-03T02:18:18.989Z,-0.01
2023-04-03T02:19:18.962Z,0.00
2023-04-03T02:20:18.966Z,0.00
2023-04-03T02:21:18.982Z,-0.04
2023-04-03T02:22:18.937Z,-0.03
2023-04-03T02:23:18.948Z,-0.09
2023-04-03T02:24:18.939Z,-0.09
2023-04-03T02:25:18.906Z,-0.10
2023-04-03T02:26:18.909Z,-0.10
2023-04-03T02:27:18.895Z,-0.09
2023-04-03T02:28:18.932Z,-0.13
2023-04-03T02:29:18.896Z,-0.11
2023-04-03T02:30:18.892Z,-0.09
2023-04-03T02:31:18.897Z,-0.11
2023-04-03T02:32:18.863Z,-0.10
2023-04-03T02:33:18.882Z,-0.14
2023-04-03T02:34:18.885Z,-0.21
2023-04-03T02:35:19.101Z,-0.17
2023-04-03T02:36:18.843Z,-0.24
2023-04-03T02:37:18.848Z,-0.25
2023-04-03T02:38:18.856Z,-0.27
2023-04-03T02:39:18.850Z,-0.29
2023-04-03T02:40:18.847Z,-0.31
2023-04-03T02:41:18.842Z,-0.34
2023-04-03T02:42:18.810Z,-0.35
2023-04-03T02:43:19.202Z,-0.38
2023-04-03T02:44:18.921Z,-0.38
2023-04-03T02:45:18.788Z,-0.31
2023-04-03T02:46:18.850Z,-0.32
2023-04-03T02:47:18.776Z,-0.35
2023-04-03T02:48:18.765Z,-0.39
2023-04-03T02:49:18.782Z,-0.39
2023-04-03T02:50:18.750Z,-0.38
2023-04-03T02:51:18.768Z,-0.43
2023-04-03T02:52:18.779Z,-0.45
2023-04-03T02:53:18.739Z,-0.47
2023-04-03T02:54:18.743Z,-0.46
2023-04-03T02:55:19.292Z,-0.50
2023-04-03T02:56:18.726Z,-0.52
2023-04-03T02:57:18.761Z,-0.52
2023-04-03T02:58:19.383Z,-0.53
2023-04-03T02:59:19.008Z,-0.52
2023-04-03T03:00:18.728Z,-0.53
2023-04-03T03:01:19.498Z,-0.57
2023-04-03T03:02:19.663Z,-0.57
2023-04-03T03:03:18.727Z,-0.58
2023-04-03T03:04:18.706Z,-0.47
2023-04-03T03:05:18.760Z,-0.42
2023-04-03T03:06:18.662Z,-0.39
2023-04-03T03:07:18.657Z,-0.40
2023-04-03T03:08:18.643Z,-0.42
2023-04-03T03:09:18.766Z,-0.42
2023-04-03T03:10:18.636Z,-0.46
2023-04-03T03:11:18.634Z,-0.49
2023-04-03T03:12:18.628Z,-0.55
2023-04-03T03:13:18.617Z,-0.55
2023-04-03T03:14:18.797Z,-0.53
2023-04-03T03:15:18.609Z,-0.50
2023-04-03T03:16:18.830Z,-0.46
2023-04-03T03:17:18.819Z,-0.38
2023-04-03T03:18:18.824Z,-0.38
2023-04-03T03:19:18.616Z,-0.32
2023-04-03T03:20:18.589Z,-0.28
2023-04-03T03:21:18.574Z,-0.24
2023-04-03T03:22:18.564Z,-0.28
2023-04-03T03:23:18.567Z,-0.25
2023-04-03T03:25:44.579Z,-0.22
2023-04-03T03:26:44.506Z,-0.27
2023-04-03T03:27:44.528Z,-0.28
2023-04-03T03:28:44.510Z,-0.27
2023-04-03T03:29:44.492Z,-0.31
2023-04-03T03:30:44.481Z,-0.24
2023-04-03T03:31:44.506Z,-0.22
2023-04-03T03:32:45.180Z,-0.21
2023-04-03T03:33:44.468Z,-0.24
2023-04-03T03:34:44.467Z,-0.24
2023-04-03T03:35:44.482Z,-0.24
2023-04-03T03:36:44.456Z,-0.24
2023-04-03T03:37:44.444Z,-0.24
2023-04-03T03:38:44.470Z,-0.29
2023-04-03T03:39:44.458Z,-0.27
2023-04-03T03:40:44.458Z,-0.28
2023-04-03T03:41:44.450Z,-0.31
2023-04-03T03:42:44.422Z,-0.32
2023-04-03T03:43:44.433Z,-0.35
2023-04-03T03:44:44.527Z,-0.31
2023-04-03T03:45:44.980Z,-0.32
2023-04-03T03:46:44.996Z,-0.34
2023-04-03T03:47:44.425Z,-0.40
2023-04-03T03:48:45.198Z,-0.38
2023-04-03T03:49:45.200Z,-0.40
2023-04-03T03:50:44.566Z,-0.40
2023-04-03T03:51:45.258Z,-0.46
2023-04-03T03:52:44.360Z,-0.49
2023-04-03T03:53:45.209Z,-0.53
2023-04-03T03:54:45.396Z,-0.55
2023-04-03T03:55:45.273Z,-0.49
2023-04-03T03:56:45.174Z,-0.49
2023-04-03T03:57:44.463Z,-0.53
2023-04-03T03:58:44.428Z,-0.50
2023-04-03T03:59:44.432Z,-0.53
2023-04-03T04:00:44.443Z,-0.60
2023-04-03T04:01:44.330Z,-0.61
2023-04-03T04:02:44.410Z,-0.63
2023-04-03T04:03:44.338Z,-0.63
2023-04-03T04:04:44.290Z,-0.67
2023-04-03T04:05:44.273Z,-0.70
2023-04-03T04:06:44.280Z,-0.71
2023-04-03T04:07:44.284Z,-0.67
2023-04-03T04:08:44.292Z,-0.67
2023-04-03T04:09:44.262Z,-0.70
2023-04-03T04:10:44.304Z,-0.70
2023-04-03T04:11:44.234Z,-0.76
2023-04-03T04:12:44.243Z,-0.78
2023-04-03T04:13:44.325Z,-0.79
2023-04-03T04:14:44.334Z,-0.76
2023-04-03T04:15:44.207Z,-0.79
2023-04-03T04:16:44.367Z,-0.82
2023-04-03T04:17:44.220Z,-0.85
2023-04-03T04:18:44.186Z,-0.92
2023-04-03T04:19:44.368Z,-0.90
2023-04-03T04:20:44.390Z,-0.94
2023-04-03T04:21:44.377Z,-0.94
2023-04-03T04:22:44.381Z,-0.94
2023-04-03T04:23:44.160Z,-0.98
2023-04-03T04:24:44.429Z,-1.01
2023-04-03T04:25:44.402Z,-1.04
2023-04-03T04:26:44.202Z,-1.01
2023-04-03T04:27:44.553Z,-1.04
2023-04-03T04:28:44.473Z,-1.05
2023-04-03T04:29:44.474Z,-1.10
2023-04-03T04:30:44.388Z,-1.10
2023-04-03T04:31:44.164Z,-1.07
2023-04-03T04:32:44.133Z,-1.08
2023-04-03T04:33:44.123Z,-1.08
2023-04-03T04:34:44.135Z,-1.11
2023-04-03T04:35:44.271Z,-1.15
2023-04-03T04:36:44.203Z,-1.10
2023-04-03T04:37:44.088Z,-1.10
2023-04-03T04:38:44.133Z,-1.10
2023-04-03T04:39:44.164Z,-1.08
2023-04-03T04:40:44.044Z,-1.10
2023-04-03T04:41:44.094Z,-1.05
2023-04-03T04:42:44.234Z,-1.05
2023-04-03T04:43:44.155Z,-1.08
2023-04-03T04:44:44.049Z,-1.10
2023-04-03T04:45:44.019Z,-1.10
2023-04-03T04:46:44.354Z,-1.07
2023-04-03T04:47:44.190Z,-1.07
2023-04-03T04:48:44.388Z,-1.10
2023-04-03T04:49:44.432Z,-1.16
2023-04-03T04:50:44.462Z,-1.13
2023-04-03T04:51:51.702Z,-1.16
2023-04-03T04:52:44.487Z,-1.16
2023-04-03T04:53:44.030Z,-1.23
2023-04-03T04:54:44.053Z,-1.23
2023-04-03T04:55:44.064Z,-1.25
2023-04-03T04:56:44.088Z,-1.29
2023-04-03T04:57:44.090Z,-1.34
2023-04-03T04:58:44.058Z,-1.34
2023-04-03T04:59:44.182Z,-1.33
2023-04-03T05:00:44.173Z,-1.34
2023-04-03T05:01:44.295Z,-1.36
2023-04-03T05:02:44.173Z,-1.36
2023-04-03T05:03:44.328Z,-1.34
2023-04-03T05:04:44.513Z,-1.36
2023-04-03T05:05:44.535Z,-1.33
2023-04-03T05:06:44.554Z,-1.31
2023-04-03T05:07:43.901Z,-1.25
2023-04-03T05:08:44.164Z,-1.21
2023-04-03T05:09:44.364Z,-1.16
2023-04-03T05:10:44.560Z,-1.21
2023-04-03T05:11:44.812Z,-1.21
2023-04-03T05:12:43.897Z,-1.18
2023-04-03T05:13:44.149Z,-1.15
2023-04-03T05:14:43.949Z,-1.08
2023-04-03T05:15:43.979Z,-1.07
2023-04-03T05:16:43.889Z,-1.03
2023-04-03T05:17:43.961Z,-1.05
2023-04-03T05:18:43.979Z,-0.97
2023-04-03T05:19:43.955Z,-0.92
2023-04-03T05:20:44.066Z,-0.97
2023-04-03T05:21:43.830Z,-1.03
2023-04-03T05:22:43.823Z,-0.98
2023-04-03T05:23:43.826Z,-0.97
2023-04-03T05:24:43.852Z,-0.89
2023-04-03T05:25:43.818Z,-0.78
2023-04-03T05:26:43.962Z,-0.68
2023-04-03T05:27:44.029Z,-0.61
2023-04-03T05:28:43.837Z,-0.55
2023-04-03T05:29:45.064Z,-0.57
2023-04-03T05:30:44.165Z,-0.60
2023-04-03T05:31:44.242Z,-0.61
2023-04-03T05:32:43.991Z,-0.60
2023-04-03T05:33:44.026Z,-0.61
2023-04-03T05:34:44.311Z,-0.63
2023-04-03T05:35:44.443Z,-0.64
2023-04-03T05:36:44.215Z,-0.57
2023-04-03T05:37:44.547Z,-0.61
2023-04-03T05:38:44.295Z,-0.58
2023-04-03T05:39:43.778Z,-0.57
2023-04-03T05:40:44.011Z,-0.61
2023-04-03T05:41:44.430Z,-0.61
2023-04-03T05:42:43.907Z,-0.60
2023-04-03T05:43:43.692Z,-0.61
2023-04-03T05:44:43.917Z,-0.53
2023-04-03T05:45:45.559Z,-0.46
2023-04-03T05:46:43.680Z,-0.42
2023-04-03T05:47:43.867Z,-0.40
2023-04-03T05:48:43.675Z,-0.35
2023-04-03T05:49:44.012Z,-0.35
2023-04-03T05:50:44.472Z,-0.29
2023-04-03T05:51:43.743Z,-0.27
2023-04-03T05:52:43.652Z,-0.17
2023-04-03T05:53:43.778Z,-0.16
2023-04-03T05:54:43.785Z,-0.09
2023-04-03T05:55:44.766Z,0.05
2023-04-03T05:56:44.004Z,0.14
2023-04-03T05:57:44.025Z,0.15
2023-04-03T05:58:44.017Z,0.25
2023-04-03T05:59:44.028Z,0.35
2023-04-03T06:00:43.612Z,0.50
2023-04-03T06:01:43.672Z,0.62
2023-04-03T06:02:44.238Z,0.64
2023-04-03T06:03:44.118Z,0.72
2023-04-03T06:04:43.681Z,0.82
2023-04-03T06:05:43.793Z,0.85
2023-04-03T06:06:43.670Z,0.94
2023-04-03T06:07:43.892Z,0.99
2023-04-03T06:08:43.709Z,1.00
2023-04-03T06:09:44.197Z,1.08
2023-04-03T06:10:44.351Z,1.16
2023-04-03T06:11:44.084Z,1.10
2023-04-03T06:12:43.523Z,1.16
2023-04-03T06:13:43.526Z,1.26
2023-04-03T06:14:43.531Z,1.28
2023-04-03T06:15:43.532Z,1.31
2023-04-03T06:16:43.538Z,1.31
2023-04-03T06:17:43.617Z,1.39
2023-04-03T06:18:43.519Z,1.45
2023-04-03T06:19:43.667Z,1.49
2023-04-03T06:20:43.508Z,1.52
2023-04-03T06:21:43.583Z,1.59
2023-04-03T06:22:43.804Z,1.67
2023-04-03T06:23:43.576Z,1.73
2023-04-03T06:24:43.875Z,1.78
2023-04-03T06:25:43.500Z,1.81
2023-04-03T06:26:43.426Z,1.82
2023-04-03T06:27:43.408Z,1.82
2023-04-03T06:28:43.414Z,1.80
2023-04-03T06:29:43.670Z,1.81
2023-04-03T06:30:43.435Z,1.81
2023-04-03T06:31:43.397Z,1.91
2023-04-03T06:32:44.890Z,1.95
2023-04-03T06:33:43.440Z,2.03
2023-04-03T06:34:43.466Z,2.10
2023-04-03T06:35:43.689Z,2.18
2023-04-03T06:36:43.731Z,2.25
2023-04-03T06:37:43.441Z,2.32
2023-04-03T06:38:43.515Z,2.36
2023-04-03T06:39:43.874Z,2.43
2023-04-03T06:40:43.970Z,2.47
2023-04-03T06:41:43.972Z,2.51
2023-04-03T06:42:43.320Z,2.55
2023-04-03T06:43:43.572Z,2.53
2023-04-03T06:44:43.985Z,2.58
2023-04-03T06:45:43.545Z,2.54
2023-04-03T06:46:44.106Z,2.58
2023-04-03T06:47:43.332Z,2.61
2023-04-03T06:48:43.366Z,2.68
2023-04-03T06:49:43.984Z,2.61
2023-04-03T06:50:43.361Z,2.69
2023-04-03T06:51:43.390Z,2.76
2023-04-03T06:52:43.361Z,2.81
2023-04-03T06:53:43.361Z,2.89
2023-04-03T06:54:43.387Z,2.90
2023-04-03T06:55:43.247Z,2.99
2023-04-03T06:56:43.244Z,3.00
2023-04-03T06:57:43.211Z,2.89
2023-04-03T06:58:43.244Z,2.96
2023-04-03T06:59:43.223Z,3.12
2023-04-03T07:00:43.437Z,3.17
2023-04-03T07:01:43.271Z,3.26
2023-04-03T07:02:43.281Z,3.36
2023-04-03T07:03:43.309Z,3.35
2023-04-03T07:04:43.335Z,3.48
2023-04-03T07:05:43.154Z,3.51
2023-04-03T07:06:43.185Z,3.45
2023-04-03T07:07:43.152Z,3.46
2023-04-03T07:08:43.275Z,3.52
2023-04-03T07:09:44.698Z,3.51
2023-04-03T07:10:43.125Z,3.59
2023-04-03T07:11:43.134Z,3.63
2023-04-03T07:12:43.135Z,3.51
2023-04-03T07:13:43.149Z,3.55
2023-04-03T07:14:43.105Z,3.48
2023-04-03T07:15:43.088Z,3.55
2023-04-03T07:16:43.338Z,3.41
2023-04-03T07:17:43.143Z,3.46
2023-04-03T07:18:43.130Z,3.48
2023-04-03T07:19:43.059Z,3.54
2023-04-03T07:20:43.067Z,3.51
2023-04-03T07:21:43.082Z,3.56
2023-04-03T07:22:43.082Z,3.56
2023-04-03T07:23:43.236Z,3.60
2023-04-03T07:24:43.045Z,3.66
2023-04-03T07:25:43.028Z,3.72
2023-04-03T07:26:43.124Z,3.74
2023-04-03T07:27:43.149Z,3.72
2023-04-03T07:28:43.159Z,3.78
2023-04-03T07:29:42.995Z,3.74
2023-04-03T07:30:43.188Z,3.87
2023-04-03T07:31:43.240Z,3.96
2023-04-03T07:32:43.237Z,4.06
2023-04-03T07:33:42.985Z,4.12
2023-04-03T07:34:42.969Z,4.12
2023-04-03T07:35:43.338Z,4.26
2023-04-03T07:36:42.987Z,4.23
2023-04-03T07:37:42.942Z,4.17
2023-04-03T07:38:42.946Z,4.17
2023-04-03T07:39:43.296Z,4.13
2023-04-03T07:40:43.314Z,4.16
2023-04-03T07:41:43.066Z,4.18
2023-04-03T07:42:42.948Z,4.05
2023-04-03T07:43:42.917Z,4.10
2023-04-03T07:44:43.030Z,4.17
2023-04-03T07:45:43.180Z,4.20
2023-04-03T07:46:43.116Z,4.28
2023-04-03T07:47:43.226Z,4.31
2023-04-03T07:48:42.892Z,4.28
2023-04-03T07:49:42.909Z,4.31
2023-04-03T07:50:42.933Z,4.27
2023-04-03T07:51:42.907Z,4.41
2023-04-03T07:52:43.469Z,4.51
2023-04-03T07:53:43.487Z,4.57
2023-04-03T07:54:43.488Z,4.51
2023-04-03T07:55:42.953Z,4.60
2023-04-03T07:56:43.516Z,4.71
2023-04-03T07:57:43.417Z,4.74
2023-04-03T07:58:43.541Z,4.78
2023-04-03T07:59:42.821Z,4.91
2023-04-03T08:00:42.820Z,4.93
2023-04-03T08:01:42.849Z,4.86
2023-04-03T08:02:43.691Z,4.78
2023-04-03T08:03:42.907Z,4.74
2023-04-03T08:04:42.954Z,4.86
2023-04-03T08:05:42.914Z,5.03
2023-04-03T08:06:46.868Z,5.09
2023-04-03T08:07:43.018Z,5.18
2023-04-03T08:08:43.071Z,5.29
2023-04-03T08:09:42.866Z,5.30
2023-04-03T08:10:43.077Z,5.25
2023-04-03T08:11:42.885Z,5.18
2023-04-03T08:12:42.856Z,5.16
2023-04-03T08:13:43.293Z,5.21
2023-04-03T08:14:42.844Z,5.30
2023-04-03T08:15:42.962Z,5.40
2023-04-03T08:16:43.424Z,5.54
2023-04-03T08:17:43.440Z,5.55
2023-04-03T08:18:42.718Z,5.48
2023-04-03T08:19:42.707Z,5.43
2023-04-03T08:20:42.780Z,5.41
2023-04-03T08:21:42.690Z,5.51
2023-04-03T08:22:42.872Z,5.50
2023-04-03T08:23:42.733Z,5.47
2023-04-03T08:24:56.278Z,5.41
2023-04-03T08:25:42.741Z,5.47
2023-04-03T08:26:42.747Z,5.59
2023-04-03T08:27:42.713Z,5.73
2023-04-03T08:28:42.765Z,5.62
2023-04-03T08:29:42.710Z,5.77
2023-04-03T08:30:42.777Z,5.85
2023-04-03T08:31:42.643Z,5.85
2023-04-03T08:32:42.693Z,5.88
2023-04-03T08:33:42.666Z,5.85
2023-04-03T08:34:42.643Z,5.85
2023-04-03T08:35:42.966Z,6.00
2023-04-03T08:36:42.590Z,6.19
2023-04-03T08:37:42.678Z,6.31
2023-04-03T08:38:42.618Z,6.45
2023-04-03T08:39:42.726Z,6.45
2023-04-03T08:40:42.723Z,6.40
2023-04-03T08:41:42.553Z,6.30
2023-04-03T08:42:42.965Z,6.34
2023-04-03T08:43:42.766Z,6.34
2023-04-03T08:44:42.779Z,6.13
2023-04-03T08:45:42.879Z,6.24
2023-04-03T08:46:43.036Z,6.38
2023-04-03T08:47:42.907Z,6.40
2023-04-03T08:48:42.791Z,6.35
2023-04-03T08:49:42.882Z,6.38
2023-04-03T08:50:42.863Z,6.46
2023-04-03T08:51:42.831Z,6.38
2023-04-03T08:52:42.530Z,6.24
2023-04-03T08:53:42.542Z,6.38
2023-04-03T08:54:42.504Z,6.55
2023-04-03T08:55:42.552Z,6.65
2023-04-03T08:56:42.534Z,6.82
2023-04-03T08:57:42.550Z,6.96
2023-04-03T08:58:42.467Z,6.91
2023-04-03T08:59:42.649Z,6.79
2023-04-03T09:00:42.587Z,6.82
2023-04-03T09:01:42.787Z,6.88
2023-04-03T09:02:42.588Z,6.79
2023-04-03T09:03:42.822Z,6.89
2023-04-03T09:04:42.876Z,6.97
2023-04-03T09:05:42.711Z,6.96
2023-04-03T09:06:42.547Z,7.11
2023-04-03T09:07:42.463Z,7.26
2023-04-03T09:08:42.589Z,7.31
2023-04-03T09:09:42.666Z,7.36
2023-04-03T09:10:43.065Z,7.37
2023-04-03T09:11:43.136Z,7.21
2023-04-03T09:12:43.288Z,7.28
2023-04-03T09:13:43.172Z,7.37
2023-04-03T09:14:42.649Z,7.37
2023-04-03T09:15:42.884Z,7.36
2023-04-03T09:16:42.455Z,7.52
2023-04-03T09:17:42.414Z,7.66
2023-04-03T09:18:43.140Z,7.76
2023-04-03T09:19:42.881Z,7.80
2023-04-03T09:20:42.606Z,7.84
2023-04-03T09:21:43.203Z,7.80
2023-04-03T09:22:49.726Z,7.77
2023-04-03T09:23:42.820Z,7.84
2023-04-03T09:24:42.772Z,7.96
2023-04-03T09:25:43.325Z,7.99
2023-04-03T09:26:42.813Z,8.01
2023-04-03T09:27:42.494Z,8.14
2023-04-03T09:28:47.246Z,8.26
2023-04-03T09:29:42.331Z,8.35
2023-04-03T09:30:42.253Z,8.29
2023-04-03T09:31:42.591Z,8.35
2023-04-03T09:32:42.260Z,8.37
2023-04-03T09:33:42.381Z,8.34
2023-04-03T09:34:42.440Z,8.13
2023-04-03T09:35:48.048Z,8.13
2023-04-03T09:36:42.206Z,8.28
2023-04-03T09:37:42.430Z,8.39
2023-04-03T09:38:42.260Z,8.46
2023-04-03T09:39:42.669Z,8.46
2023-04-03T09:40:42.718Z,8.44
2023-04-03T09:41:42.223Z,8.46
2023-04-03T09:42:44.175Z,8.52
2023-04-03T09:43:42.862Z,8.53
2023-04-03T09:44:42.811Z,8.62
2023-04-03T09:45:42.220Z,8.59
2023-04-03T09:46:42.231Z,8.70
2023-04-03T09:47:42.299Z,8.80
2023-04-03T09:48:42.162Z,8.77
2023-04-03T09:49:42.267Z,8.78
2023-04-03T09:50:42.180Z,8.71
2023-04-03T09:51:42.184Z,8.80
2023-04-03T09:52:42.105Z,9.03
2023-04-03T09:53:42.312Z,9.16
2023-04-03T09:54:42.406Z,9.08
2023-04-03T09:55:42.404Z,9.11
2023-04-03T09:56:42.136Z,9.12
2023-04-03T09:57:42.396Z,9.11
2023-04-03T09:58:49.714Z,9.23
2023-04-03T09:59:42.611Z,9.34
2023-04-03T10:00:42.716Z,9.19
2023-04-03T10:01:42.258Z,9.32
2023-04-03T10:02:42.823Z,9.26
2023-04-03T10:03:42.045Z,9.29
2023-04-03T10:04:42.955Z,9.01
2023-04-03T10:05:42.020Z,8.93
2023-04-03T10:06:41.995Z,8.90
2023-04-03T10:07:44.676Z,8.95
2023-04-03T10:08:42.082Z,9.14
2023-04-03T10:09:42.148Z,9.33
2023-04-03T10:10:42.204Z,9.50
2023-04-03T10:11:42.139Z,9.63
2023-04-03T10:12:42.162Z,9.55
2023-04-03T10:13:50.705Z,9.45
2023-04-03T10:14:42.381Z,9.54
2023-04-03T10:15:42.022Z,9.65
2023-04-03T10:16:42.347Z,9.78
2023-04-03T10:17:42.415Z,9.83
2023-04-03T10:18:42.571Z,9.93
2023-04-03T10:19:42.001Z,9.77
2023-04-03T10:20:42.599Z,9.80
2023-04-03T10:21:42.077Z,9.70
2023-04-03T10:22:42.019Z,9.77
2023-04-03T10:23:42.344Z,9.90
2023-04-03T10:24:42.031Z,9.94
2023-04-03T10:25:42.013Z,9.80
2023-04-03T10:26:42.164Z,9.66
2023-04-03T10:27:42.512Z,9.60
2023-04-03T10:28:42.369Z,9.67
2023-04-03T10:29:42.081Z,9.84
2023-04-03T10:30:42.212Z,9.63
2023-04-03T10:31:42.655Z,9.54
2023-04-03T10:32:42.772Z,9.50
2023-04-03T10:33:42.651Z,9.63
2023-04-03T10:34:43.443Z,9.73
2023-04-03T10:35:42.525Z,9.66
2023-04-03T10:36:42.250Z,9.83
2023-04-03T10:37:41.874Z,9.96
2023-04-03T10:38:42.210Z,10.02
2023-04-03T10:39:42.014Z,10.24
2023-04-03T10:40:42.494Z,10.41
2023-04-03T10:41:41.792Z,10.61
2023-04-03T10:42:41.781Z,10.80
2023-04-03T10:43:41.763Z,10.87
2023-04-03T10:44:41.817Z,11.04
2023-04-03T10:45:41.902Z,11.31
2023-04-03T10:46:41.807Z,11.22
2023-04-03T10:47:42.030Z,11.23
2023-04-03T10:48:42.023Z,11.51
2023-04-03T10:49:44.612Z,11.70
2023-04-03T10:50:42.120Z,11.66
2023-04-03T10:51:42.163Z,11.49
2023-04-03T10:52:41.698Z,11.71
2023-04-03T10:53:42.159Z,11.95
2023-04-03T10:54:41.668Z,12.11
2023-04-03T10:55:42.347Z,12.13
2023-04-03T10:56:41.902Z,12.23
2023-04-03T10:57:42.537Z,12.43
2023-04-03T10:58:42.538Z,12.44
2023-04-03T10:59:41.770Z,12.54
2023-04-03T11:00:42.209Z,12.69
2023-04-03T11:01:41.717Z,13.08
2023-04-03T11:02:41.662Z,13.32
2023-04-03T11:03:41.908Z,13.40
2023-04-03T11:04:41.892Z,13.24
2023-04-03T11:05:41.945Z,13.21
2023-04-03T11:06:41.672Z,13.11
2023-04-03T11:07:41.563Z,13.30
2023-04-03T11:08:41.600Z,13.20
2023-04-03T11:09:41.556Z,13.36
2023-04-03T11:10:41.584Z,13.04
2023-04-03T11:11:41.570Z,13.13
2023-04-03T11:12:41.540Z,13.01
2023-04-03T11:13:41.560Z,12.87
2023-04-03T11:14:41.574Z,13.09
2023-04-03T11:15:41.588Z,13.43
2023-04-03T11:16:50.965Z,13.76
2023-04-03T11:17:41.522Z,13.98
2023-04-03T11:18:41.497Z,13.97
2023-04-03T11:19:41.594Z,14.03
2023-04-03T11:20:41.636Z,14.15
2023-04-03T11:21:41.657Z,14.15
2023-04-03T11:22:41.459Z,14.01
2023-04-03T11:23:49.563Z,13.82
2023-04-03T11:24:41.455Z,14.03
2023-04-03T11:25:43.609Z,14.21
2023-04-03T11:26:41.433Z,14.37
2023-04-03T11:27:41.427Z,14.51
2023-04-03T11:28:41.411Z,14.53
2023-04-03T11:29:41.533Z,14.67
2023-04-03T11:30:41.565Z,14.73
2023-04-03T11:31:41.584Z,14.85
2023-04-03T11:32:41.435Z,14.64
2023-04-03T11:33:41.571Z,14.40
2023-04-03T11:34:41.405Z,14.45
2023-04-03T11:35:41.629Z,14.45
2023-04-03T11:36:41.535Z,13.82
2023-04-03T11:37:41.387Z,14.18
2023-04-03T11:38:41.367Z,14.46
2023-04-03T11:39:41.374Z,13.72
2023-04-03T11:40:41.347Z,12.62
2023-04-03T11:41:41.384Z,11.88
2023-04-03T11:42:41.469Z,11.70
2023-04-03T11:43:41.315Z,12.15
2023-04-03T11:44:41.309Z,12.69
2023-04-03T11:45:41.646Z,13.61
2023-04-03T11:46:41.311Z,14.01
2023-04-03T11:47:41.314Z,13.80
2023-04-03T11:48:41.266Z,13.29
2023-04-03T11:49:41.468Z,12.46
2023-04-03T11:50:41.294Z,11.76
2023-04-03T11:51:41.287Z,11.89
2023-04-03T11:52:43.989Z,12.28
2023-04-03T11:53:41.308Z,12.73
2023-04-03T11:54:44.863Z,13.32
2023-04-03T11:55:41.315Z,13.13
2023-04-03T11:56:41.365Z,12.47
2023-04-03T11:57:41.436Z,11.64
2023-04-03T11:58:41.231Z,11.38
2023-04-03T11:59:41.354Z,11.03
2023-04-03T12:00:41.556Z,10.78
2023-04-03T12:01:41.274Z,10.67
2023-04-03T12:02:53.793Z,10.60
2023-04-03T12:03:41.297Z,11.01
2023-04-03T12:04:41.348Z,11.03
2023-04-03T12:05:41.454Z,11.15
2023-04-03T12:06:41.676Z,11.79
2023-04-03T12:07:41.693Z,12.44
2023-04-03T12:08:41.169Z,12.86
2023-04-03T12:09:41.389Z,13.19
2023-04-03T12:10:41.728Z,13.40
2023-04-03T12:11:41.735Z,13.40
2023-04-03T12:12:41.238Z,13.61
2023-04-03T12:13:41.768Z,13.63
2023-04-03T12:14:41.769Z,13.54
2023-04-03T12:15:41.189Z,13.94
2023-04-03T12:16:41.592Z,14.36
2023-04-03T12:17:41.858Z,14.15
2023-04-03T12:18:41.694Z,13.93
2023-04-03T12:19:42.974Z,13.11
2023-04-03T12:20:41.853Z,13.01
2023-04-03T12:21:41.867Z,13.45
2023-04-03T12:22:41.883Z,13.94
2023-04-03T12:23:41.076Z,14.38
2023-04-03T12:24:41.384Z,14.77
2023-04-03T12:25:41.885Z,15.04
2023-04-03T12:26:48.109Z,15.36
2023-04-03T12:27:41.030Z,15.20
2023-04-03T12:28:41.079Z,15.17
2023-04-03T12:29:42.598Z,15.15
2023-04-03T12:30:41.077Z,15.12
2023-04-03T12:31:41.076Z,15.01
2023-04-03T12:32:41.097Z,14.95
2023-04-03T12:33:41.006Z,14.87
2023-04-03T12:34:41.012Z,14.85
2023-04-03T12:35:41.575Z,14.69
2023-04-03T12:36:41.275Z,14.18
2023-04-03T12:37:40.982Z,14.03
2023-04-03T12:38:41.366Z,14.31
2023-04-03T12:39:40.947Z,14.63
2023-04-03T12:40:40.942Z,14.89
2023-04-03T12:41:40.988Z,14.74
2023-04-03T12:42:40.906Z,14.28
2023-04-03T12:43:40.929Z,14.30
2023-04-03T12:44:40.946Z,14.58
2023-04-03T12:45:41.222Z,14.77
2023-04-03T12:46:41.009Z,14.95
2023-04-03T12:47:41.038Z,14.77
2023-04-03T12:48:41.011Z,15.20
2023-04-03T12:49:41.053Z,15.68
2023-04-03T12:50:41.033Z,16.02
2023-04-03T12:51:41.031Z,15.99
2023-04-03T12:52:41.049Z,16.36
2023-04-03T12:53:41.058Z,16.57
2023-04-03T12:54:41.066Z,16.44
2023-04-03T12:55:41.082Z,16.55
2023-04-03T12:56:41.093Z,16.29
2023-04-03T12:57:40.801Z,15.70
2023-04-03T12:58:41.031Z,14.41
2023-04-03T12:59:41.156Z,13.73
2023-04-03T13:00:41.146Z,13.13
2023-04-03T13:01:41.214Z,13.35
2023-04-03T13:02:40.936Z,13.46
2023-04-03T13:03:41.028Z,13.86
2023-04-03T13:04:40.787Z,13.96
2023-04-03T13:05:40.915Z,13.78
2023-04-03T13:06:40.763Z,14.00
2023-04-03T13:07:40.915Z,13.67